Time;durP1;ratioP1;P1;durP2;ratioP2;P2;SDS_P1;SDS_P2;PMS_P1;PMS_P2;Temp;Humidity;BMP_temperature;BMP_pressure;BME280_temperature;BME280_humidity;BME280_pressure;Samples;Min_cycle;Max_cycle;Signal;HPM_P1;HPM_P2
2024/03/19 00:00:21;;;;;;;0.85;0.77;;;18.90;69.20;;;;;;4992457;28;20041;-63
2024/03/19 00:02:47;;;;;;;0.73;0.60;;;18.90;69.20;;;;;;4991994;28;20026;-63
2024/03/19 00:05:12;;;;;;;0.75;0.70;;;18.90;69.20;;;;;;4992466;28;20034;-64
2024/03/19 00:07:38;;;;;;;0.73;0.60;;;18.90;69.20;;;;;;4992676;28;20030;-65
2024/03/19 00:10:04;;;;;;;0.63;0.55;;;18.80;69.20;;;;;;4992456;28;20030;-63
2024/03/19 00:12:32;;;;;;;0.77;0.65;;;18.80;69.30;;;;;;4991705;28;20041;-65
2024/03/19 00:14:59;;;;;;;0.93;0.70;;;18.80;69.30;;;;;;4992509;28;20033;-63
2024/03/19 00:17:26;;;;;;;0.65;0.60;;;18.90;69.20;;;;;;4992332;28;20031;-65
2024/03/19 00:19:52;;;;;;;0.73;0.60;;;18.80;69.20;;;;;;4992223;28;20164;-64
2024/03/19 00:22:18;;;;;;;0.82;0.75;;;18.80;69.20;;;;;;4991521;28;20046;-64
2024/03/19 00:24:44;;;;;;;0.68;0.68;;;18.80;69.30;;;;;;4992224;28;20035;-64
2024/03/19 00:27:10;;;;;;;0.63;0.55;;;18.80;69.30;;;;;;4992147;28;20022;-64
2024/03/19 00:29:36;;;;;;;0.63;0.50;;;18.80;69.30;;;;;;4992140;28;20053;-63
2024/03/19 00:32:01;;;;;;;0.50;0.45;;;18.80;69.30;;;;;;4991302;28;20054;-63
2024/03/19 00:34:27;;;;;;;0.68;0.55;;;18.80;69.30;;;;;;4991962;28;20061;-63
2024/03/19 00:36:52;;;;;;;0.50;0.50;;;18.80;69.30;;;;;;4992364;28;20031;-65
2024/03/19 00:39:22;;;;;;;1.15;0.80;;;18.80;69.40;;;;;;4992018;28;20509;-65
2024/03/19 00:41:48;;;;;;;0.50;0.50;;;18.80;69.40;;;;;;4991117;28;20542;-65
2024/03/19 00:44:13;;;;;;;0.75;0.70;;;18.80;69.40;;;;;;4991052;28;20509;-64
2024/03/19 00:46:39;;;;;;;0.88;0.73;;;18.80;69.40;;;;;;4991924;28;20038;-65
2024/03/19 00:49:05;;;;;;;0.57;0.50;;;18.80;69.40;;;;;;4992131;28;20443;-64
2024/03/19 00:51:31;;;;;;;0.47;0.40;;;18.80;69.30;;;;;;4991137;28;20112;-65
2024/03/19 00:53:57;;;;;;;0.52;0.40;;;18.80;69.30;;;;;;4991925;28;20062;-65
2024/03/19 00:56:23;;;;;;;0.75;0.75;;;18.80;69.30;;;;;;4991838;28;20029;-64
2024/03/19 00:58:48;;;;;;;0.85;0.60;;;18.80;69.20;;;;;;4991726;28;20042;-64
2024/03/19 01:01:14;;;;;;;1.30;0.98;;;18.90;69.30;;;;;;4991334;28;20653;-64
2024/03/19 01:03:40;;;;;;;0.40;0.40;;;18.90;69.20;;;;;;4991787;28;20046;-65
2024/03/19 01:06:05;;;;;;;0.50;0.50;;;18.90;69.20;;;;;;4991732;28;20513;-64
2024/03/19 01:08:31;;;;;;;0.55;0.55;;;18.90;69.20;;;;;;4991618;28;20031;-62
2024/03/19 01:11:01;;;;;;;0.60;0.60;;;18.90;69.20;;;;;;4991255;28;20032;-63
2024/03/19 01:13:27;;;;;;;0.68;0.50;;;18.90;69.10;;;;;;4991170;28;20062;-64
2024/03/19 01:15:53;;;;;;;0.52;0.52;;;18.90;69.10;;;;;;4991862;28;20517;-64
2024/03/19 01:18:18;;;;;;;0.75;0.52;;;18.90;69.10;;;;;;4991657;28;20024;-65
2024/03/19 01:20:44;;;;;;;0.60;0.55;;;18.80;69.10;;;;;;4991429;28;20030;-65
2024/03/19 01:23:09;;;;;;;0.40;0.40;;;18.90;69.10;;;;;;4991208;28;20030;-64
2024/03/19 01:25:36;;;;;;;0.40;0.40;;;18.80;69.10;;;;;;4991809;28;20448;-64
2024/03/19 01:28:01;;;;;;;0.70;0.50;;;18.80;69.10;;;;;;4991576;28;20037;-64
2024/03/19 01:30:27;;;;;;;0.57;0.57;;;18.90;69.20;;;;;;4991229;28;20019;-64
2024/03/19 01:32:53;;;;;;;0.85;0.57;;;18.80;69.10;;;;;;4991040;28;20026;-64
2024/03/19 01:35:19;;;;;;;0.60;0.57;;;18.80;69.20;;;;;;4991711;28;20034;-65
2024/03/19 01:37:44;;;;;;;0.60;0.60;;;18.80;69.10;;;;;;4991448;28;20030;-65
2024/03/19 01:40:10;;;;;;;0.32;0.28;;;18.80;69.20;;;;;;4992639;28;20026;-66
2024/03/19 01:42:36;;;;;;;0.45;0.43;;;18.80;69.20;;;;;;4994573;28;20045;-64
2024/03/19 01:45:13;;;;;;;0.50;0.50;;;18.80;69.20;;;;;;4995199;28;20030;-64
2024/03/19 01:47:38;;;;;;;0.30;0.30;;;18.80;69.10;;;;;;4994933;28;20479;-65
2024/03/19 01:50:09;;;;;;;0.50;0.50;;;18.80;69.20;;;;;;4995019;28;20050;-64
2024/03/19 01:52:40;;;;;;;0.88;0.73;;;18.80;69.20;;;;;;4994405;28;20045;-66
2024/03/19 01:55:06;;;;;;;0.70;0.68;;;18.80;69.20;;;;;;4995105;28;20026;-63
2024/03/19 01:57:32;;;;;;;0.52;0.52;;;18.80;69.20;;;;;;4994906;28;20039;-64
2024/03/19 01:59:58;;;;;;;0.70;0.60;;;18.80;69.20;;;;;;4994852;28;20034;-64
2024/03/19 02:02:36;;;;;;;0.43;0.43;;;18.70;69.20;;;;;;4992854;28;20030;-64
2024/03/19 02:05:04;;;;;;;0.47;0.40;;;18.80;69.20;;;;;;4994871;28;20058;-63
2024/03/19 02:07:30;;;;;;;0.93;0.40;;;18.70;69.20;;;;;;4994887;28;20033;-64
2024/03/19 02:09:56;;;;;;;0.68;0.60;;;18.70;69.20;;;;;;4994550;28;20015;-63
2024/03/19 02:12:23;;;;;;;0.30;0.30;;;18.70;69.30;;;;;;4993806;28;20495;-64
2024/03/19 02:14:49;;;;;;;0.40;0.40;;;18.70;69.30;;;;;;4995407;28;20026;-63
2024/03/19 02:17:15;;;;;;;0.70;0.60;;;18.70;69.30;;;;;;4994507;28;20036;-63
2024/03/19 02:19:41;;;;;;;0.50;0.50;;;18.70;69.30;;;;;;4994884;28;20413;-63
2024/03/19 02:22:09;;;;;;;0.57;0.55;;;18.70;69.30;;;;;;4993759;28;20109;-63
2024/03/19 02:24:35;;;;;;;0.40;0.40;;;18.70;69.40;;;;;;4994498;28;20046;-64
2024/03/19 02:27:02;;;;;;;0.40;0.40;;;18.70;69.30;;;;;;4994521;28;20035;-65
2024/03/19 02:29:28;;;;;;;0.50;0.40;;;18.70;69.30;;;;;;4994485;28;20046;-64
2024/03/19 02:31:53;;;;;;;0.30;0.30;;;18.80;69.30;;;;;;4993817;28;20030;-65
2024/03/19 02:34:19;;;;;;;0.40;0.40;;;18.80;69.20;;;;;;4994429;28;20018;-64
2024/03/19 02:36:45;;;;;;;0.60;0.50;;;18.80;69.20;;;;;;4994161;28;20038;-65
2024/03/19 02:39:12;;;;;;;0.70;0.60;;;18.80;69.20;;;;;;4994183;28;20084;-65
2024/03/19 02:41:38;;;;;;;0.30;0.30;;;18.80;69.20;;;;;;4993407;28;20036;-66
2024/03/19 02:44:04;;;;;;;0.30;0.30;;;18.80;69.20;;;;;;4993275;28;20105;-65
2024/03/19 02:46:30;;;;;;;0.38;0.38;;;18.80;69.10;;;;;;4993921;28;20121;-64
2024/03/19 02:48:56;;;;;;;0.88;0.57;;;18.80;69.10;;;;;;4994252;28;20072;-65
2024/03/19 02:51:21;;;;;;;0.60;0.60;;;18.80;69.10;;;;;;4992106;28;20031;-64
2024/03/19 02:53:47;;;;;;;0.55;0.50;;;18.80;69.10;;;;;;4993815;28;20111;-65
2024/03/19 02:56:13;;;;;;;0.40;0.40;;;18.80;69.10;;;;;;4994103;28;20042;-65
2024/03/19 02:58:38;;;;;;;0.50;0.50;;;18.80;69.10;;;;;;4993765;28;20061;-65
2024/03/19 03:01:04;;;;;;;0.60;0.60;;;18.80;69.10;;;;;;4993107;28;20031;-65
2024/03/19 03:03:29;;;;;;;0.60;0.60;;;18.70;69.10;;;;;;4993832;28;20026;-65
2024/03/19 03:05:55;;;;;;;0.77;0.52;;;18.70;69.10;;;;;;4993877;28;20026;-65
2024/03/19 03:08:20;;;;;;;0.60;0.50;;;18.70;69.10;;;;;;4993797;28;20106;-66
2024/03/19 03:10:47;;;;;;;0.40;0.40;;;18.80;69.10;;;;;;4993416;28;20046;-66
2024/03/19 03:13:12;;;;;;;0.50;0.43;;;18.80;69.10;;;;;;4993301;28;20027;-65
2024/03/19 03:15:38;;;;;;;0.68;0.68;;;18.70;69.10;;;;;;4993485;28;20052;-65
2024/03/19 03:18:04;;;;;;;0.47;0.47;;;18.70;69.10;;;;;;4993482;28;20030;-65
2024/03/19 03:20:30;;;;;;;0.47;0.40;;;18.70;69.10;;;;;;4993256;28;20034;-65
2024/03/19 03:22:55;;;;;;;0.52;0.43;;;18.70;69.10;;;;;;4992852;28;20052;-65
2024/03/19 03:25:21;;;;;;;0.47;0.40;;;18.70;69.10;;;;;;4993470;28;20027;-66
2024/03/19 03:27:47;;;;;;;0.32;0.32;;;18.70;69.20;;;;;;4993218;28;20040;-65
2024/03/19 03:30:14;;;;;;;0.73;0.50;;;18.70;69.10;;;;;;4993064;28;20026;-65
2024/03/19 03:32:42;;;;;;;0.40;0.40;;;18.70;69.10;;;;;;4992646;28;20498;-64
2024/03/19 03:35:08;;;;;;;0.93;0.70;;;18.70;69.10;;;;;;4993280;28;20421;-65
2024/03/19 03:37:34;;;;;;;0.50;0.50;;;18.70;69.10;;;;;;4993355;28;20041;-65
2024/03/19 03:40:00;;;;;;;0.73;0.50;;;18.70;69.10;;;;;;4993043;28;20034;-65
2024/03/19 03:42:26;;;;;;;0.47;0.47;;;18.70;69.20;;;;;;4991638;28;20490;-63
2024/03/19 03:44:52;;;;;;;0.50;0.50;;;18.70;69.20;;;;;;4993066;28;20084;-65
2024/03/19 03:47:17;;;;;;;0.57;0.55;;;18.70;69.20;;;;;;4993122;28;20069;-65
2024/03/19 03:49:47;;;;;;;0.60;0.60;;;18.60;69.20;;;;;;4992973;28;20027;-65
2024/03/19 03:52:13;;;;;;;0.60;0.47;;;18.60;69.20;;;;;;4992182;28;20046;-65
2024/03/19 03:54:39;;;;;;;0.40;0.40;;;18.70;69.20;;;;;;4993016;28;20526;-65
2024/03/19 03:57:04;;;;;;;0.60;0.40;;;18.60;69.20;;;;;;4992757;28;20030;-65
2024/03/19 03:59:31;;;;;;;0.50;0.50;;;18.60;69.20;;;;;;4992769;28;20058;-66
2024/03/19 04:01:56;;;;;;;0.80;0.52;;;18.60;69.30;;;;;;4991956;28;20034;-65
2024/03/19 04:04:22;;;;;;;0.40;0.40;;;18.60;69.30;;;;;;4992558;28;20034;-65
2024/03/19 04:06:50;;;;;;;0.90;0.50;;;18.60;69.30;;;;;;4992386;28;20474;-66
2024/03/19 04:09:16;;;;;;;0.93;0.75;;;18.60;69.30;;;;;;4992307;28;20145;-65
2024/03/19 04:11:42;;;;;;;0.47;0.47;;;18.70;69.30;;;;;;4991636;28;20464;-64
2024/03/19 04:14:07;;;;;;;0.35;0.30;;;18.60;69.20;;;;;;4992386;28;20026;-65
2024/03/19 04:16:33;;;;;;;0.60;0.43;;;18.70;69.20;;;;;;4991623;28;20026;-64
2024/03/19 04:18:58;;;;;;;0.70;0.70;;;18.70;69.20;;;;;;4991408;28;20052;-67
2024/03/19 04:21:24;;;;;;;0.80;0.70;;;18.70;69.20;;;;;;4990567;28;20057;-67
2024/03/19 04:23:50;;;;;;;0.57;0.57;;;18.70;69.10;;;;;;4991039;28;20037;-65
2024/03/19 04:26:15;;;;;;;0.68;0.68;;;18.70;69.10;;;;;;4990957;28;20034;-65
2024/03/19 04:28:41;;;;;;;0.52;0.45;;;18.70;69.10;;;;;;4991023;28;20028;-65
2024/03/19 04:31:06;;;;;;;0.30;0.30;;;18.70;69.10;;;;;;4990312;28;20122;-65
2024/03/19 04:33:32;;;;;;;0.43;0.40;;;18.70;69.10;;;;;;4990668;28;20037;-64
2024/03/19 04:35:57;;;;;;;0.50;0.50;;;18.70;69.00;;;;;;4991115;28;20018;-64
2024/03/19 04:38:23;;;;;;;0.60;0.40;;;18.70;69.10;;;;;;4990852;28;20023;-65
2024/03/19 04:40:48;;;;;;;0.65;0.40;;;18.70;69.00;;;;;;4990521;28;20026;-65
2024/03/19 04:43:14;;;;;;;0.68;0.40;;;18.70;69.00;;;;;;4990527;28;20133;-64
2024/03/19 04:45:40;;;;;;;0.47;0.45;;;18.70;69.00;;;;;;4991018;28;20053;-65
2024/03/19 04:48:06;;;;;;;0.65;0.65;;;18.70;69.00;;;;;;4990810;28;20425;-65
2024/03/19 04:50:31;;;;;;;0.38;0.38;;;18.70;69.00;;;;;;4990342;28;20550;-64
2024/03/19 04:52:57;;;;;;;0.40;0.30;;;18.70;69.00;;;;;;4990399;28;20030;-66
2024/03/19 04:55:22;;;;;;;0.35;0.35;;;18.60;69.00;;;;;;4990900;28;20014;-65
2024/03/19 04:57:48;;;;;;;0.50;0.40;;;18.70;69.10;;;;;;4973447;28;20039;-65
2024/03/19 05:00:18;;;;;;;0.25;0.25;;;18.70;69.00;;;;;;4990945;28;20049;-64
2024/03/19 05:02:45;;;;;;;0.90;0.55;;;18.70;69.00;;;;;;4990459;28;20493;-65
2024/03/19 05:05:12;;;;;;;0.65;0.50;;;18.60;69.00;;;;;;4990829;28;20126;-65
2024/03/19 05:07:38;;;;;;;0.50;0.50;;;18.60;69.00;;;;;;4990685;28;20102;-65
2024/03/19 05:10:05;;;;;;;0.50;0.50;;;18.60;69.00;;;;;;4990558;28;20046;-65
2024/03/19 05:12:30;;;;;;;0.70;0.60;;;18.60;69.10;;;;;;4990042;28;20413;-65
2024/03/19 05:14:56;;;;;;;0.95;0.45;;;18.60;69.00;;;;;;4991704;28;20026;-65
2024/03/19 05:17:21;;;;;;;1.35;0.70;;;18.60;69.10;;;;;;4994902;28;20044;-65
2024/03/19 05:19:47;;;;;;;1.23;0.63;;;18.60;69.10;;;;;;4994455;28;20026;-65
2024/03/19 05:22:13;;;;;;;0.60;0.60;;;18.60;69.10;;;;;;4993623;28;20034;-65
2024/03/19 05:24:38;;;;;;;0.45;0.40;;;18.60;69.10;;;;;;4994358;28;20098;-64
2024/03/19 05:27:04;;;;;;;0.63;0.40;;;18.60;69.10;;;;;;4994230;28;20037;-65
2024/03/19 05:29:32;;;;;;;0.90;0.50;;;18.60;69.10;;;;;;4994285;28;20049;-65
2024/03/19 05:31:58;;;;;;;0.95;0.52;;;18.60;69.10;;;;;;4993402;28;20509;-66
2024/03/19 05:34:23;;;;;;;1.08;0.68;;;18.60;69.10;;;;;;4994319;28;20030;-65
2024/03/19 05:36:49;;;;;;;0.35;0.32;;;18.60;69.10;;;;;;4994099;28;20029;-63
2024/03/19 05:39:14;;;;;;;0.80;0.80;;;18.60;69.10;;;;;;4993070;28;20023;-65
2024/03/19 05:41:40;;;;;;;0.68;0.50;;;18.60;69.10;;;;;;4993776;28;20038;-65
2024/03/19 05:44:07;;;;;;;0.82;0.60;;;18.60;69.10;;;;;;4993242;28;20026;-67
2024/03/19 05:46:33;;;;;;;0.50;0.35;;;18.70;69.00;;;;;;4994080;28;20038;-65
2024/03/19 05:48:58;;;;;;;1.00;0.70;;;18.70;69.00;;;;;;4994699;28;20370;-65
2024/03/19 05:51:24;;;;;;;1.33;0.68;;;18.70;69.00;;;;;;4993997;28;20027;-66
2024/03/19 05:53:50;;;;;;;0.38;0.38;;;18.70;69.00;;;;;;4994410;28;20077;-64
2024/03/19 05:56:15;;;;;;;0.60;0.60;;;18.70;69.00;;;;;;4994463;28;20030;-65
2024/03/19 05:58:41;;;;;;;0.88;0.50;;;18.80;69.10;;;;;;4994555;28;20050;-64
2024/03/19 06:01:07;;;;;;;0.57;0.50;;;18.80;69.10;;;;;;4993749;28;20081;-65
2024/03/19 06:03:33;;;;;;;0.60;0.60;;;18.80;69.10;;;;;;4993881;28;20026;-64
2024/03/19 06:06:01;;;;;;;0.47;0.47;;;18.80;69.10;;;;;;4994405;28;20081;-66
2024/03/19 06:08:28;;;;;;;0.95;0.50;;;18.80;69.10;;;;;;4994210;28;20015;-65
2024/03/19 06:10:54;;;;;;;0.88;0.77;;;18.80;69.00;;;;;;4993832;28;20046;-66
2024/03/19 06:13:20;;;;;;;0.75;0.65;;;18.90;69.00;;;;;;4993581;28;20041;-63
2024/03/19 06:15:46;;;;;;;0.80;0.65;;;18.90;69.00;;;;;;4993859;28;20022;-64
2024/03/19 06:18:12;;;;;;;1.05;0.65;;;18.90;69.00;;;;;;4993575;28;20030;-65
2024/03/19 06:20:37;;;;;;;1.08;0.63;;;18.90;69.00;;;;;;4993001;28;20487;-65
2024/03/19 06:23:03;;;;;;;0.75;0.65;;;18.90;69.00;;;;;;4992889;28;20026;-63
2024/03/19 06:25:29;;;;;;;0.63;0.47;;;18.90;69.00;;;;;;4993100;28;20026;-65
2024/03/19 06:27:55;;;;;;;0.63;0.60;;;18.90;69.00;;;;;;4993326;28;20026;-65
2024/03/19 06:30:20;;;;;;;0.50;0.50;;;18.90;69.00;;;;;;4993174;28;20027;-64
2024/03/19 06:32:46;;;;;;;1.17;0.60;;;18.90;69.00;;;;;;4992499;28;20435;-65
2024/03/19 06:35:14;;;;;;;1.15;0.70;;;18.90;69.00;;;;;;4992992;28;20478;-64
2024/03/19 06:37:41;;;;;;;0.98;0.80;;;18.90;69.00;;;;;;4991804;28;20046;-66
2024/03/19 06:40:08;;;;;;;1.48;0.55;;;18.90;69.10;;;;;;4993105;28;20105;-65
2024/03/19 06:42:35;;;;;;;0.60;0.60;;;19.00;69.10;;;;;;4992527;28;20463;-66
2024/03/19 06:45:01;;;;;;;0.73;0.45;;;19.00;69.10;;;;;;4992669;28;20026;-64
2024/03/19 06:47:27;;;;;;;1.17;0.80;;;19.00;69.10;;;;;;4992795;28;20034;-64
2024/03/19 06:49:53;;;;;;;0.60;0.60;;;18.90;69.10;;;;;;4992875;28;20501;-64
2024/03/19 06:52:19;;;;;;;0.75;0.60;;;18.90;69.20;;;;;;4992145;28;20053;-64
2024/03/19 06:54:45;;;;;;;0.88;0.75;;;19.00;69.20;;;;;;4992768;28;20022;-64
2024/03/19 06:57:10;;;;;;;0.98;0.60;;;19.00;69.20;;;;;;4992708;28;20026;-64
2024/03/19 06:59:36;;;;;;;0.80;0.50;;;18.90;69.30;;;;;;4992409;28;20043;-65
2024/03/19 07:02:06;;;;;;;0.82;0.65;;;19.00;69.30;;;;;;4991690;28;20030;-66
2024/03/19 07:04:33;;;;;;;0.65;0.50;;;18.90;69.30;;;;;;4993013;28;20042;-65
2024/03/19 07:06:58;;;;;;;0.77;0.45;;;18.90;69.40;;;;;;4991196;28;20034;-65
2024/03/19 07:09:24;;;;;;;1.10;0.50;;;19.00;69.40;;;;;;4992439;28;20018;-65
2024/03/19 07:11:50;;;;;;;0.70;0.65;;;19.00;69.50;;;;;;4991353;28;20495;-65
2024/03/19 07:14:15;;;;;;;1.33;0.60;;;19.00;69.40;;;;;;4992575;28;20486;-63
2024/03/19 07:16:41;;;;;;;0.38;0.38;;;18.90;69.50;;;;;;4992614;28;20101;-65
2024/03/19 07:19:08;;;;;;;0.35;0.32;;;19.00;69.50;;;;;;4992321;28;20076;-65
2024/03/19 07:21:34;;;;;;;0.95;0.85;;;18.90;69.50;;;;;;4991664;28;20061;-64
2024/03/19 07:24:00;;;;;;;0.50;0.50;;;19.00;69.50;;;;;;4992374;28;20036;-64
2024/03/19 07:26:26;;;;;;;0.45;0.45;;;19.00;69.50;;;;;;4992372;28;20541;-65
2024/03/19 07:28:51;;;;;;;0.50;0.50;;;18.90;69.50;;;;;;4992146;28;20019;-65
2024/03/19 07:31:18;;;;;;;0.73;0.65;;;18.90;69.50;;;;;;4991848;28;20019;-64
2024/03/19 07:33:43;;;;;;;1.02;0.77;;;19.00;69.60;;;;;;4992102;28;20019;-64
2024/03/19 07:36:10;;;;;;;0.60;0.50;;;19.00;69.50;;;;;;4991822;28;20554;-65
2024/03/19 07:38:39;;;;;;;0.45;0.40;;;18.90;69.60;;;;;;4991482;28;20023;-64
2024/03/19 07:41:04;;;;;;;0.52;0.47;;;19.00;69.60;;;;;;4991678;28;20367;-64
2024/03/19 07:43:30;;;;;;;0.60;0.43;;;19.00;69.70;;;;;;4990893;28;20027;-64
2024/03/19 07:45:55;;;;;;;0.50;0.50;;;19.00;69.70;;;;;;4991988;28;20108;-65
2024/03/19 07:48:21;;;;;;;0.82;0.65;;;19.00;69.70;;;;;;4991867;28;20046;-65
2024/03/19 07:50:47;;;;;;;0.98;0.70;;;19.00;69.70;;;;;;4991348;28;20469;-65
2024/03/19 07:53:14;;;;;;;0.80;0.80;;;19.00;69.70;;;;;;4991248;28;20074;-64
2024/03/19 07:55:39;;;;;;;0.73;0.63;;;19.00;69.70;;;;;;4991650;28;20053;-65
2024/03/19 07:58:05;;;;;;;0.75;0.60;;;19.00;69.70;;;;;;4991589;28;20362;-64
2024/03/19 08:00:32;;;;;;;0.63;0.63;;;19.00;69.70;;;;;;4991246;28;20022;-63
2024/03/19 08:02:57;;;;;;;0.77;0.60;;;19.00;69.70;;;;;;4991038;28;20068;-66
2024/03/19 08:05:23;;;;;;;0.50;0.50;;;19.00;69.70;;;;;;4991580;28;20351;-64
2024/03/19 08:07:48;;;;;;;0.40;0.40;;;19.00;69.60;;;;;;4991577;28;20034;-64
2024/03/19 08:10:14;;;;;;;0.60;0.60;;;19.00;69.70;;;;;;4991433;28;20034;-64
2024/03/19 08:12:40;;;;;;;0.73;0.73;;;19.00;69.70;;;;;;4990835;28;20066;-65
2024/03/19 08:15:06;;;;;;;0.52;0.47;;;19.00;69.70;;;;;;4992102;28;20030;-65
2024/03/19 08:17:32;;;;;;;0.80;0.80;;;19.00;69.70;;;;;;4991320;28;20027;-64
2024/03/19 08:19:59;;;;;;;0.45;0.40;;;19.00;69.80;;;;;;4991198;28;20553;-65
2024/03/19 08:22:25;;;;;;;0.47;0.47;;;19.00;69.80;;;;;;4990722;28;20045;-64
2024/03/19 08:24:52;;;;;;;0.57;0.57;;;19.00;69.80;;;;;;4991264;28;20026;-64
2024/03/19 08:27:18;;;;;;;0.65;0.57;;;19.00;69.80;;;;;;4991405;28;20034;-65
2024/03/19 08:29:44;;;;;;;0.85;0.70;;;19.00;69.80;;;;;;4990249;28;20115;-65
2024/03/19 08:32:10;;;;;;;1.05;0.80;;;19.00;69.90;;;;;;4990390;28;20495;-64
2024/03/19 08:34:36;;;;;;;1.20;0.73;;;19.00;69.90;;;;;;4991250;28;20553;-64
2024/03/19 08:37:03;;;;;;;0.95;0.50;;;19.00;69.80;;;;;;4991304;28;20132;-64
2024/03/19 08:39:28;;;;;;;0.60;0.60;;;19.00;69.80;;;;;;4990971;28;20030;-66
2024/03/19 08:41:54;;;;;;;0.57;0.45;;;19.00;69.80;;;;;;4990189;28;20041;-64
2024/03/19 08:44:20;;;;;;;0.40;0.40;;;19.00;69.90;;;;;;4990419;28;20180;-67
2024/03/19 08:46:46;;;;;;;0.60;0.60;;;19.00;69.80;;;;;;4991553;28;20443;-65
2024/03/19 08:49:12;;;;;;;0.60;0.38;;;19.00;69.90;;;;;;4991174;28;20112;-65
2024/03/19 08:51:37;;;;;;;0.63;0.60;;;19.00;69.90;;;;;;4990259;28;20101;-64
2024/03/19 08:54:04;;;;;;;1.27;0.70;;;19.00;69.90;;;;;;4991046;28;20074;-65
2024/03/19 08:56:32;;;;;;;0.55;0.52;;;19.00;69.90;;;;;;4990994;28;20026;-65
2024/03/19 08:58:58;;;;;;;0.57;0.55;;;19.00;70.00;;;;;;4990971;28;20490;-64
2024/03/19 09:01:24;;;;;;;0.82;0.55;;;19.00;70.00;;;;;;4990419;28;20037;-62
2024/03/19 09:03:51;;;;;;;0.85;0.57;;;19.00;70.00;;;;;;4990771;28;20030;-65
2024/03/19 09:06:18;;;;;;;1.02;0.50;;;19.00;70.00;;;;;;4990768;28;20137;-65
2024/03/19 09:08:43;;;;;;;0.40;0.40;;;19.00;70.00;;;;;;4990759;28;20026;-65
2024/03/19 09:11:10;;;;;;;0.75;0.60;;;19.00;70.00;;;;;;4990096;28;20096;-62
2024/03/19 09:13:35;;;;;;;0.60;0.50;;;19.00;70.10;;;;;;4990638;28;20035;-65
2024/03/19 09:16:01;;;;;;;0.30;0.30;;;19.00;70.10;;;;;;4990812;28;20025;-66
2024/03/19 09:18:27;;;;;;;0.77;0.70;;;19.00;70.10;;;;;;4991110;28;20072;-64
2024/03/19 09:20:52;;;;;;;0.40;0.40;;;19.00;70.10;;;;;;4990740;28;20022;-64
2024/03/19 09:23:18;;;;;;;0.73;0.55;;;19.00;70.10;;;;;;4990277;28;20022;-64
2024/03/19 09:25:43;;;;;;;0.60;0.50;;;19.00;70.20;;;;;;4990847;28;20030;-65
2024/03/19 09:28:09;;;;;;;0.50;0.45;;;19.00;70.20;;;;;;4990563;28;20026;-64
2024/03/19 09:30:36;;;;;;;0.68;0.50;;;19.00;70.20;;;;;;4990523;28;20023;-64
2024/03/19 09:33:02;;;;;;;0.52;0.50;;;19.00;70.20;;;;;;4989986;28;20695;-65
2024/03/19 09:35:28;;;;;;;0.60;0.50;;;19.00;70.20;;;;;;4990650;28;20482;-65
2024/03/19 09:37:54;;;;;;;0.47;0.40;;;19.00;70.20;;;;;;4990407;28;20110;-64
2024/03/19 09:40:20;;;;;;;0.40;0.40;;;19.00;70.20;;;;;;4990162;28;20034;-66
2024/03/19 09:42:46;;;;;;;0.75;0.40;;;19.00;70.20;;;;;;4988957;28;20030;-65
2024/03/19 09:45:29;;;;;;;0.40;0.40;;;19.00;70.20;;;;;;4990516;28;20118;-66
2024/03/19 09:47:55;;;;;;;0.57;0.52;;;19.00;70.20;;;;;;4990476;28;20446;-65
2024/03/19 09:50:22;;;;;;;0.30;0.30;;;19.00;70.20;;;;;;4990200;28;20078;-64
2024/03/19 09:52:50;;;;;;;0.45;0.45;;;19.00;70.20;;;;;;4989964;28;20027;-64
2024/03/19 09:55:17;;;;;;;0.68;0.30;;;19.00;70.20;;;;;;4991003;28;20018;-65
2024/03/19 09:57:46;;;;;;;0.40;0.40;;;19.00;70.20;;;;;;4991004;28;20034;-65
2024/03/19 10:00:47;;;;;;;0.80;0.70;;;19.00;70.10;;;;;;4990606;28;20023;-64
2024/03/19 10:03:16;;;;;;;0.45;0.40;;;19.00;70.10;;;;;;4980526;28;20118;-66
2024/03/19 10:05:41;;;;;;;0.70;0.40;;;19.00;70.20;;;;;;4994550;28;20069;-64
2024/03/19 10:08:10;;;;;;;0.60;0.60;;;19.00;70.10;;;;;;4994296;28;20053;-65
2024/03/19 10:10:36;;;;;;;0.45;0.45;;;19.00;70.10;;;;;;4994168;28;20023;-65
2024/03/19 10:13:03;;;;;;;0.30;0.30;;;19.00;70.10;;;;;;4993695;28;20138;-64
2024/03/19 10:15:29;;;;;;;0.40;0.40;;;19.00;70.10;;;;;;4994368;28;20055;-65
2024/03/19 10:17:57;;;;;;;0.60;0.60;;;19.00;70.20;;;;;;4994260;28;20078;-66
2024/03/19 10:20:25;;;;;;;1.27;0.70;;;19.00;70.10;;;;;;4994546;28;20023;-64
2024/03/19 10:22:51;;;;;;;0.68;0.68;;;19.00;70.10;;;;;;4993830;28;20566;-65
2024/03/19 10:25:17;;;;;;;0.57;0.50;;;19.00;70.10;;;;;;4994469;28;20113;-65
2024/03/19 10:27:47;;;;;;;0.50;0.30;;;19.00;70.10;;;;;;4994435;28;20109;-65
2024/03/19 10:30:14;;;;;;;0.30;0.30;;;19.00;70.10;;;;;;4994014;28;20475;-65
2024/03/19 10:32:45;;;;;;;0.40;0.40;;;19.00;70.00;;;;;;4993681;28;20391;-62
2024/03/19 10:35:23;;;;;;;0.70;0.52;;;19.00;70.10;;;;;;4994155;28;20026;-64
2024/03/19 10:37:51;;;;;;;0.43;0.40;;;19.00;70.00;;;;;;4994207;28;20036;-64
2024/03/19 10:40:18;;;;;;;0.82;0.50;;;19.00;70.00;;;;;;4993889;28;20026;-64
2024/03/19 10:42:46;;;;;;;0.43;0.43;;;19.00;70.00;;;;;;4992405;28;20027;-63
2024/03/19 10:45:19;;;;;;;0.63;0.52;;;19.00;70.00;;;;;;4994062;28;20026;-65
2024/03/19 10:47:47;;;;;;;0.55;0.40;;;19.00;69.90;;;;;;4993989;28;20034;-66
2024/03/19 10:50:15;;;;;;;0.63;0.50;;;19.00;69.90;;;;;;4993858;28;20045;-64
2024/03/19 10:53:03;;;;;;;0.73;0.55;;;19.00;69.90;;;;;;4993502;28;20022;-64
2024/03/19 10:55:31;;;;;;;0.50;0.50;;;19.00;69.90;;;;;;4994083;28;20030;-64
2024/03/19 10:58:01;;;;;;;0.40;0.40;;;19.00;69.90;;;;;;4993821;28;20026;-63
2024/03/19 11:00:28;;;;;;;0.60;0.30;;;19.00;69.90;;;;;;4993661;28;20030;-65
2024/03/19 11:03:02;;;;;;;0.55;0.50;;;19.00;69.90;;;;;;4993021;28;20022;-65
2024/03/19 11:05:28;;;;;;;0.70;0.52;;;19.10;69.90;;;;;;4993543;28;20034;-64
2024/03/19 11:07:57;;;;;;;0.70;0.60;;;19.00;69.80;;;;;;4993748;28;20034;-64
2024/03/19 11:10:25;;;;;;;0.32;0.32;;;19.00;69.80;;;;;;4993435;28;20084;-64
2024/03/19 11:13:03;;;;;;;0.55;0.43;;;19.10;69.80;;;;;;4991880;28;20117;-64
2024/03/19 11:15:32;;;;;;;0.40;0.40;;;19.10;69.70;;;;;;4993319;28;20038;-65
2024/03/19 11:18:03;;;;;;;0.70;0.60;;;19.00;69.70;;;;;;4993007;28;20026;-65
2024/03/19 11:20:30;;;;;;;0.40;0.38;;;19.10;69.70;;;;;;4992765;28;20026;-65
2024/03/19 11:22:56;;;;;;;0.77;0.52;;;19.10;69.70;;;;;;4992883;28;20109;-64
2024/03/19 11:25:22;;;;;;;0.47;0.32;;;19.00;69.60;;;;;;4993517;28;20109;-63
2024/03/19 11:27:49;;;;;;;0.65;0.35;;;19.10;69.60;;;;;;4993215;28;20034;-64
2024/03/19 11:30:16;;;;;;;0.65;0.47;;;19.00;69.60;;;;;;4992787;28;20026;-64
2024/03/19 11:32:43;;;;;;;0.70;0.63;;;19.10;69.60;;;;;;4992277;28;20046;-65
2024/03/19 11:35:22;;;;;;;0.22;0.22;;;19.10;69.60;;;;;;4993186;28;20034;-67
2024/03/19 11:37:49;;;;;;;0.98;0.80;;;19.10;69.50;;;;;;4993088;28;20494;-64
2024/03/19 11:40:16;;;;;;;0.65;0.52;;;19.10;69.50;;;;;;4992833;28;20046;-66
2024/03/19 11:42:42;;;;;;;0.40;0.40;;;19.00;69.40;;;;;;4991800;28;20401;-64
2024/03/19 11:45:17;;;;;;;0.60;0.50;;;19.00;69.40;;;;;;4993197;28;20105;-63
2024/03/19 11:47:47;;;;;;;0.73;0.45;;;19.10;69.40;;;;;;4992824;28;20110;-64
2024/03/19 11:50:19;;;;;;;0.57;0.47;;;19.00;69.40;;;;;;4992724;28;20022;-64
2024/03/19 11:52:49;;;;;;;0.35;0.35;;;19.10;69.30;;;;;;4992023;28;20038;-64
2024/03/19 11:55:20;;;;;;;0.50;0.40;;;19.10;69.30;;;;;;4992954;28;20379;-65
2024/03/19 11:57:48;;;;;;;0.80;0.65;;;19.10;69.30;;;;;;4992939;28;20081;-64
2024/03/19 12:00:14;;;;;;;0.55;0.55;;;19.10;69.30;;;;;;4992428;28;20026;-65
2024/03/19 12:02:40;;;;;;;0.50;0.50;;;19.00;69.30;;;;;;4990808;28;20125;-65
2024/03/19 12:05:12;;;;;;;0.30;0.30;;;19.00;69.30;;;;;;4992611;28;20022;-64
2024/03/19 12:07:37;;;;;;;;;;;19.00;69.30;;;;;;4993510;28;20105;-64
2024/03/19 12:10:34;;;;;;;0.40;0.40;;;19.00;69.30;;;;;;4993000;28;20385;-65
2024/03/19 12:13:00;;;;;;;0.40;0.40;;;19.00;69.40;;;;;;4975475;28;20538;-66
2024/03/19 12:15:26;;;;;;;0.38;0.30;;;19.00;69.40;;;;;;4992320;28;20518;-65
2024/03/19 12:17:53;;;;;;;0.60;0.40;;;19.00;69.50;;;;;;4992057;28;20022;-65
2024/03/19 12:20:20;;;;;;;0.57;0.57;;;19.00;69.50;;;;;;4992152;28;20061;-64
2024/03/19 12:22:50;;;;;;;0.95;0.40;;;19.00;69.60;;;;;;4991537;28;20064;-65
2024/03/19 12:25:18;;;;;;;0.50;0.50;;;19.00;69.60;;;;;;4992138;28;20490;-65
2024/03/19 12:27:45;;;;;;;0.47;0.45;;;18.90;69.60;;;;;;4992266;28;20437;-64
2024/03/19 12:30:15;;;;;;;0.40;0.40;;;18.90;69.60;;;;;;4991941;28;20489;-64
2024/03/19 12:32:48;;;;;;;0.70;0.50;;;18.90;69.70;;;;;;4991619;28;20022;-64
2024/03/19 12:35:16;;;;;;;0.38;0.38;;;18.90;69.70;;;;;;4992311;28;20023;-66
2024/03/19 12:37:43;;;;;;;0.50;0.30;;;18.90;69.70;;;;;;4992016;28;20081;-65
2024/03/19 12:40:13;;;;;;;0.35;0.35;;;18.90;69.80;;;;;;4991905;28;20109;-64
2024/03/19 12:42:38;;;;;;;0.60;0.50;;;18.90;69.80;;;;;;4990392;28;20026;-64
2024/03/19 12:45:07;;;;;;;0.30;0.30;;;18.90;69.80;;;;;;4992208;28;20034;-66